Time;durP1;ratioP1;P1;durP2;ratioP2;P2;SDS_P1;SDS_P2;PMS_P1;PMS_P2;Temp;Humidity;BMP_temperature;BMP_pressure;BME280_temperature;BME280_humidity;BME280_pressure;Samples;Min_cycle;Max_cycle;Signal;HPM_P1;HPM_P2
2024/01/12 00:00:47;;;;;;;2.67;1.30;;;-12.40;89.90;;;;;;5033975;28;20483;-86
2024/01/12 00:03:13;;;;;;;2.45;1.60;;;-12.50;90.20;;;;;;5017873;28;20084;-85
2024/01/12 00:05:39;;;;;;;2.85;1.75;;;-12.40;90.00;;;;;;5035983;28;20058;-86
2024/01/12 00:08:05;;;;;;;4.95;2.40;;;-12.50;89.70;;;;;;5032532;28;20071;-85
2024/01/12 00:10:32;;;;;;;1.25;1.15;;;-12.50;89.80;;;;;;5050478;28;20014;-84
2024/01/12 00:12:58;;;;;;;;;;;-12.60;88.90;;;;;;5052507;28;20199;-84
2024/01/12 00:15:23;;;;;;;3.83;2.13;;;-12.60;90.10;;;;;;5036952;28;19916;-84
2024/01/12 00:17:49;;;;;;;1.73;1.52;;;-12.70;90.00;;;;;;5016729;28;20486;-84
2024/01/12 00:20:15;;;;;;;5.20;3.17;;;-12.70;90.20;;;;;;5036670;28;20028;-85
2024/01/12 00:22:41;;;;;;;7.80;2.72;;;-12.70;90.10;;;;;;5038956;28;20036;-82
2024/01/12 00:25:08;;;;;;;5.63;2.55;;;-12.70;89.90;;;;;;5046834;28;20081;-83
2024/01/12 00:27:33;;;;;;;2.17;1.53;;;-12.70;90.10;;;;;;5041260;28;20107;-84
2024/01/12 00:29:59;;;;;;;4.90;2.17;;;-12.70;90.00;;;;;;5018429;28;20369;-84
2024/01/12 00:32:25;;;;;;;2.80;1.45;;;-12.70;90.20;;;;;;5037750;28;20062;-84
2024/01/12 00:34:51;;;;;;;2.97;1.63;;;-12.70;90.30;;;;;;5036582;28;20017;-85
2024/01/12 00:37:17;;;;;;;3.78;2.60;;;-12.70;90.30;;;;;;5036372;28;20387;-82
2024/01/12 00:39:42;;;;;;;2.92;1.92;;;-12.70;90.10;;;;;;5037106;28;20014;-83
2024/01/12 00:42:08;;;;;;;3.72;2.80;;;-12.70;90.40;;;;;;5036789;28;20030;-84
2024/01/12 00:44:34;;;;;;;2.97;1.60;;;-12.70;90.60;;;;;;5015993;28;20119;-82
2024/01/12 00:47:00;;;;;;;5.72;3.00;;;-12.70;90.50;;;;;;5040424;28;20113;-85
2024/01/12 00:49:26;;;;;;;0.75;0.75;;;-12.70;90.30;;;;;;5040989;28;20446;-83
2024/01/12 00:51:52;;;;;;;3.85;2.35;;;-12.70;90.30;;;;;;5039341;28;20053;-84
2024/01/12 00:54:20;;;;;;;2.22;1.90;;;-12.70;90.60;;;;;;5021210;28;20193;-82
2024/01/12 00:56:46;;;;;;;3.50;2.28;;;-12.70;90.60;;;;;;5041364;28;20386;-83
2024/01/12 00:59:11;;;;;;;2.50;1.77;;;-12.70;90.70;;;;;;5035194;28;20030;-84
2024/01/12 01:01:37;;;;;;;3.35;1.95;;;-12.70;90.80;;;;;;5031895;28;20025;-84
2024/01/12 01:04:04;;;;;;;1.65;1.33;;;-12.70;90.90;;;;;;5035740;28;20022;-83
2024/01/12 01:06:30;;;;;;;3.25;2.33;;;-12.70;90.90;;;;;;5030978;28;20021;-83
2024/01/12 01:08:56;;;;;;;5.97;2.22;;;-12.70;90.80;;;;;;5043870;28;20507;-82
2024/01/12 01:11:22;;;;;;;3.35;1.63;;;-12.70;91.00;;;;;;5024861;28;20049;-83
2024/01/12 01:13:49;;;;;;;2.88;1.90;;;-12.70;91.10;;;;;;5035188;28;20131;-82
2024/01/12 01:16:15;;;;;;;3.92;1.85;;;-12.60;91.20;;;;;;5035312;28;20026;-83
2024/01/12 01:18:40;;;;;;;2.92;1.30;;;-12.60;91.40;;;;;;5032925;28;20040;-83
2024/01/12 01:21:06;;;;;;;3.70;2.13;;;-12.60;91.70;;;;;;5035460;28;20018;-83
2024/01/12 01:23:32;;;;;;;2.75;2.25;;;-12.60;91.70;;;;;;5036694;28;20038;-84
2024/01/12 01:25:59;;;;;;;3.67;2.58;;;-12.60;91.80;;;;;;5039446;28;20028;-83
2024/01/12 01:28:25;;;;;;;2.10;1.42;;;-12.60;92.00;;;;;;5038604;28;20110;-85
2024/01/12 01:30:51;;;;;;;5.35;2.88;;;-12.50;92.20;;;;;;5039561;28;20061;-85
2024/01/12 01:33:17;;;;;;;3.25;2.08;;;-12.50;92.40;;;;;;5037767;28;20026;-83
2024/01/12 01:35:43;;;;;;;3.50;2.13;;;-12.50;92.40;;;;;;5041171;28;20014;-84
2024/01/12 01:38:08;;;;;;;3.50;2.10;;;-12.60;92.50;;;;;;5032193;28;20037;-84
2024/01/12 01:40:34;;;;;;;2.92;2.25;;;-12.60;92.70;;;;;;5055495;28;20371;-83
2024/01/12 01:43:08;;;;;;;1.98;1.52;;;-12.50;92.90;;;;;;5051136;28;20021;-83
2024/01/12 01:45:36;;;;;;;3.92;1.83;;;-12.50;92.80;;;;;;5034854;28;20105;-84
2024/01/12 01:48:05;;;;;;;1.63;1.50;;;-12.50;92.90;;;;;;5039541;28;20386;-83
2024/01/12 01:50:32;;;;;;;5.70;2.22;;;-12.50;92.80;;;;;;5017908;28;20045;-84
2024/01/12 01:52:59;;;;;;;;;;;-12.50;92.80;;;;;;5037869;28;20071;-83
2024/01/12 01:55:27;;;;;;;3.25;1.92;;;-12.50;93.00;;;;;;5038145;28;19905;-85
2024/01/12 01:57:54;;;;;;;3.20;1.50;;;-12.50;93.20;;;;;;5037538;28;20140;-84
2024/01/12 02:00:20;;;;;;;1.77;1.40;;;-12.60;93.30;;;;;;5057658;28;20028;-84
2024/01/12 02:02:45;;;;;;;8.70;2.50;;;-12.50;93.50;;;;;;5063403;28;20029;-83
2024/01/12 02:05:12;;;;;;;2.75;2.25;;;-12.50;93.70;;;;;;5058889;28;20025;-84
2024/01/12 02:07:38;;;;;;;1.70;1.60;;;-12.50;94.20;;;;;;5051085;28;20083;-84
2024/01/12 02:10:04;;;;;;;7.75;3.20;;;-12.50;94.10;;;;;;5030226;28;20028;-85
2024/01/12 02:12:30;;;;;;;4.30;2.55;;;-12.40;94.40;;;;;;5037781;28;20056;-84
2024/01/12 02:14:57;;;;;;;3.72;1.85;;;-12.40;94.50;;;;;;5020870;28;20127;-84
2024/01/12 02:17:23;;;;;;;3.90;2.33;;;-12.30;94.60;;;;;;5017465;28;20617;-84
2024/01/12 02:19:48;;;;;;;5.93;1.65;;;-12.30;94.70;;;;;;5016486;28;20120;-84
2024/01/12 02:22:14;;;;;;;2.88;1.98;;;-12.20;94.70;;;;;;5034320;28;20029;-84
2024/01/12 02:24:40;;;;;;;5.15;2.40;;;-12.20;94.70;;;;;;5032100;28;20025;-83
2024/01/12 02:27:06;;;;;;;4.07;1.73;;;-12.10;94.80;;;;;;5034333;28;20025;-84
2024/01/12 02:29:32;;;;;;;1.48;1.33;;;-12.10;94.80;;;;;;5035446;28;20025;-84
2024/01/12 02:31:58;;;;;;;7.07;2.45;;;-12.10;95.00;;;;;;5016719;28;20442;-83
2024/01/12 02:34:24;;;;;;;5.00;2.92;;;-12.00;95.20;;;;;;5035023;28;20052;-84
2024/01/12 02:36:50;;;;;;;5.10;2.97;;;-12.00;95.20;;;;;;5034660;28;20497;-84
2024/01/12 02:39:16;;;;;;;10.57;2.95;;;-11.90;95.00;;;;;;5033548;28;20040;-85
2024/01/12 02:41:41;;;;;;;5.40;2.38;;;-11.90;94.90;;;;;;5015814;28;20075;-83
2024/01/12 02:44:07;;;;;;;3.75;2.30;;;-11.90;95.00;;;;;;5033244;28;20065;-84
2024/01/12 02:46:33;;;;;;;2.97;2.10;;;-11.90;95.10;;;;;;5014115;28;20033;-85
2024/01/12 02:48:59;;;;;;;4.55;2.08;;;-11.80;95.30;;;;;;5031238;28;20105;-85
2024/01/12 02:51:25;;;;;;;2.97;1.88;;;-11.80;95.40;;;;;;5016777;28;20050;-84
2024/01/12 02:53:51;;;;;;;9.48;2.92;;;-11.80;95.40;;;;;;5016367;28;20034;-85
2024/01/12 02:56:17;;;;;;;12.48;2.20;;;-11.70;95.40;;;;;;5033629;28;20049;-84
2024/01/12 02:58:43;;;;;;;5.00;2.83;;;-11.70;95.40;;;;;;5033371;28;20029;-85
2024/01/12 03:01:10;;;;;;;5.05;3.00;;;-11.70;95.40;;;;;;5018801;28;20018;-84
2024/01/12 03:03:36;;;;;;;4.32;2.75;;;-11.70;95.50;;;;;;5019799;28;20044;-84
2024/01/12 03:06:02;;;;;;;6.13;5.07;;;-11.60;95.60;;;;;;5026889;28;20025;-84
2024/01/12 03:08:28;;;;;;;8.70;2.58;;;-11.60;95.60;;;;;;5028432;28;20044;-85
2024/01/12 03:10:54;;;;;;;7.38;2.75;;;-11.60;95.70;;;;;;5039308;28;20018;-84
2024/01/12 03:13:20;;;;;;;3.17;2.17;;;-11.60;95.70;;;;;;5023675;28;20025;-85
2024/01/12 03:15:45;;;;;;;2.22;1.77;;;-11.50;95.70;;;;;;5034050;28;20025;-84
2024/01/12 03:18:11;;;;;;;5.85;2.28;;;-11.50;95.50;;;;;;5042863;28;20032;-83
2024/01/12 03:20:37;;;;;;;2.40;1.45;;;-11.40;95.50;;;;;;5047060;28;20065;-83
2024/01/12 03:23:03;;;;;;;3.65;2.30;;;-11.40;95.50;;;;;;5052512;28;20100;-86
2024/01/12 03:25:29;;;;;;;2.65;2.45;;;-11.40;95.50;;;;;;5024385;28;20074;-84
2024/01/12 03:27:55;;;;;;;7.53;3.13;;;-11.40;95.60;;;;;;5019253;28;20025;-84
2024/01/12 03:30:21;;;;;;;2.58;1.67;;;-11.40;95.70;;;;;;5035861;28;20029;-83
2024/01/12 03:32:47;;;;;;;5.53;2.13;;;-11.40;95.70;;;;;;5026873;28;20104;-84
2024/01/12 03:35:13;;;;;;;4.60;2.70;;;-11.40;95.70;;;;;;5019861;28;20430;-83
2024/01/12 03:37:39;;;;;;;2.20;1.15;;;-11.30;95.80;;;;;;5050978;28;20028;-83
2024/01/12 03:40:05;;;;;;;4.25;1.67;;;-11.30;95.80;;;;;;5028231;28;20086;-84
2024/01/12 03:42:31;;;;;;;5.55;2.00;;;-11.30;95.90;;;;;;5025938;28;20379;-84
2024/01/12 03:44:57;;;;;;;3.95;2.45;;;-11.30;95.90;;;;;;5027562;28;20025;-81
2024/01/12 03:47:23;;;;;;;2.40;2.15;;;-11.30;95.90;;;;;;5050138;28;20017;-84
2024/01/12 03:49:49;;;;;;;7.80;2.75;;;-11.30;96.00;;;;;;5047531;28;20503;-84
2024/01/12 03:52:15;;;;;;;6.50;2.30;;;-11.30;96.00;;;;;;5031853;28;20046;-83
2024/01/12 03:54:41;;;;;;;2.97;2.42;;;-11.30;95.90;;;;;;5041327;28;20048;-81
2024/01/12 03:57:06;;;;;;;5.13;1.90;;;-11.30;95.80;;;;;;5043851;28;20013;-84
2024/01/12 03:59:32;;;;;;;4.85;2.45;;;-11.30;95.80;;;;;;5047151;28;20037;-83
2024/01/12 04:01:58;;;;;;;3.55;1.77;;;-11.30;95.80;;;;;;5048078;28;20026;-85
2024/01/12 04:04:24;;;;;;;7.55;1.75;;;-11.40;95.90;;;;;;5052785;28;20111;-83
2024/01/12 04:06:50;;;;;;;3.60;2.08;;;-11.30;95.90;;;;;;5025961;28;20100;-84
2024/01/12 04:09:16;;;;;;;4.30;2.45;;;-11.30;95.80;;;;;;5037560;28;20044;-84
2024/01/12 04:11:42;;;;;;;2.65;1.85;;;-11.40;95.80;;;;;;5042805;28;20075;-83
2024/01/12 04:14:08;;;;;;;9.05;2.47;;;-11.40;95.80;;;;;;5040827;28;20027;-83
2024/01/12 04:16:34;;;;;;;4.70;2.17;;;-11.40;95.80;;;;;;5021834;28;20029;-85
2024/01/12 04:19:00;;;;;;;2.97;1.63;;;-11.40;95.80;;;;;;5036900;28;20045;-85
2024/01/12 04:21:26;;;;;;;5.30;2.45;;;-11.40;95.90;;;;;;5034114;28;20017;-83
2024/01/12 04:23:52;;;;;;;3.30;1.85;;;-11.40;96.00;;;;;;5037371;28;20033;-85
2024/01/12 04:26:18;;;;;;;5.60;1.77;;;-11.30;95.90;;;;;;5036454;28;20040;-85
2024/01/12 04:28:44;;;;;;;3.53;2.35;;;-11.30;95.90;;;;;;5021006;28;20029;-85
2024/01/12 04:31:11;;;;;;;6.07;2.17;;;-11.30;95.90;;;;;;5040291;28;20485;-84
2024/01/12 04:33:37;;;;;;;7.18;3.03;;;-11.30;96.00;;;;;;5031192;28;20025;-86
2024/01/12 04:36:06;;;;;;;2.65;1.90;;;-11.20;96.10;;;;;;5058282;28;20010;-84
2024/01/12 04:38:32;;;;;;;5.15;2.20;;;-11.20;96.10;;;;;;5037509;28;20065;-87
2024/01/12 04:40:58;;;;;;;5.13;2.05;;;-11.20;96.20;;;;;;5039724;28;20021;-83
2024/01/12 04:43:24;;;;;;;4.05;2.08;;;-11.20;96.20;;;;;;5052353;28;20065;-85
2024/01/12 04:45:50;;;;;;;3.80;1.80;;;-11.20;96.20;;;;;;5049940;28;20383;-84
2024/01/12 04:48:16;;;;;;;2.90;1.75;;;-11.20;96.20;;;;;;5054045;28;20037;-84
2024/01/12 04:50:42;;;;;;;2.53;1.75;;;-11.20;96.20;;;;;;5048197;28;20041;-85
2024/01/12 04:53:07;;;;;;;7.35;1.98;;;-11.20;96.10;;;;;;5026104;28;20024;-84
2024/01/12 04:55:33;;;;;;;7.80;2.10;;;-11.20;96.10;;;;;;5037829;28;20029;-84
2024/01/12 04:57:59;;;;;;;5.38;1.92;;;-11.10;96.30;;;;;;5038295;28;20080;-85
2024/01/12 05:00:25;;;;;;;5.13;2.33;;;-11.10;96.30;;;;;;5030092;28;20067;-86
2024/01/12 05:02:51;;;;;;;5.50;2.05;;;-11.10;96.30;;;;;;5043598;28;20034;-85
2024/01/12 05:05:17;;;;;;;5.70;2.20;;;-11.00;96.10;;;;;;5042413;28;20017;-84
2024/01/12 05:07:43;;;;;;;4.10;2.30;;;-11.00;96.20;;;;;;5020784;28;20032;-85
2024/01/12 05:10:09;;;;;;;8.65;2.88;;;-11.00;96.30;;;;;;5021338;28;20366;-84
2024/01/12 05:12:35;;;;;;;5.65;2.50;;;-11.00;96.40;;;;;;5037570;28;20033;-87
2024/01/12 05:15:02;;;;;;;3.80;2.53;;;-11.00;96.40;;;;;;5036235;28;20025;-85
2024/01/12 05:17:28;;;;;;;4.97;2.13;;;-10.90;96.40;;;;;;5036768;28;20026;-85
2024/01/12 05:19:53;;;;;;;7.00;3.00;;;-10.90;96.40;;;;;;5038582;28;20099;-85
2024/01/12 05:22:20;;;;;;;3.55;1.65;;;-10.90;96.30;;;;;;5038227;28;20099;-86
2024/01/12 05:24:46;;;;;;;4.07;2.25;;;-10.80;96.30;;;;;;5039698;28;20030;-87
2024/01/12 05:27:12;;;;;;;4.20;2.08;;;-10.80;96.30;;;;;;5043747;28;20372;-86
2024/01/12 05:29:38;;;;;;;3.35;2.22;;;-10.80;96.40;;;;;;5047205;28;20072;-84
2024/01/12 05:32:04;;;;;;;5.68;2.70;;;-10.80;96.40;;;;;;5022470;28;20363;-85
2024/01/12 05:34:30;;;;;;;3.95;2.33;;;-10.80;96.40;;;;;;5020269;28;20598;-85
2024/01/12 05:36:56;;;;;;;8.60;2.08;;;-10.70;96.60;;;;;;5041876;28;20033;-85
2024/01/12 05:39:22;;;;;;;5.28;2.05;;;-10.70;96.80;;;;;;5021642;28;20036;-85
2024/01/12 05:41:48;;;;;;;2.92;2.17;;;-10.70;96.90;;;;;;5042825;28;20048;-86
2024/01/12 05:44:14;;;;;;;6.22;2.10;;;-10.70;97.00;;;;;;5036158;28;20400;-86
2024/01/12 05:46:43;;;;;;;3.53;1.38;;;-10.60;97.00;;;;;;5022948;28;20018;-87
2024/01/12 05:49:09;;;;;;;6.50;2.45;;;-10.60;97.20;;;;;;5036728;28;20037;-85
2024/01/12 05:51:35;;;;;;;4.05;1.52;;;-10.60;97.40;;;;;;5035471;28;20098;-87
2024/01/12 05:54:01;;;;;;;6.93;3.03;;;-10.50;97.50;;;;;;5017363;28;20479;-85
2024/01/12 05:56:27;;;;;;;3.83;2.17;;;-10.50;97.50;;;;;;5037902;28;20048;-85
2024/01/12 05:58:53;;;;;;;4.60;2.10;;;-10.50;97.50;;;;;;5040854;28;20087;-85
2024/01/12 06:01:19;;;;;;;5.63;2.78;;;-10.50;97.70;;;;;;5045864;28;20029;-85
2024/01/12 06:03:46;;;;;;;3.05;1.63;;;-10.50;97.90;;;;;;5053158;28;20072;-84
2024/01/12 06:06:12;;;;;;;5.03;2.60;;;-10.40;98.00;;;;;;5059283;28;20018;-85
2024/01/12 06:08:38;;;;;;;6.43;3.03;;;-10.40;98.00;;;;;;5040254;28;20080;-86
2024/01/12 06:11:04;;;;;;;4.63;2.60;;;-10.40;98.10;;;;;;5027194;28;20029;-85
2024/01/12 06:13:30;;;;;;;3.23;2.03;;;-10.40;98.10;;;;;;5018015;28;20071;-88
2024/01/12 06:15:56;;;;;;;4.88;2.30;;;-10.40;98.10;;;;;;5023067;28;20041;-87
2024/01/12 06:18:22;;;;;;;3.15;1.67;;;-10.30;98.30;;;;;;5038715;28;20032;-86
2024/01/12 06:20:48;;;;;;;7.57;1.95;;;-10.30;98.40;;;;;;5016104;28;20043;-88
2024/01/12 06:23:15;;;;;;;4.97;2.03;;;-10.30;98.40;;;;;;5032378;28;20029;-86
2024/01/12 06:25:41;;;;;;;5.35;2.75;;;-10.30;98.20;;;;;;5034279;28;20064;-88
2024/01/12 06:28:07;;;;;;;10.73;3.03;;;-10.20;98.30;;;;;;5017725;28;20033;-87
2024/01/12 06:30:33;;;;;;;5.68;2.13;;;-10.20;98.00;;;;;;5019127;28;20017;-85
2024/01/12 06:32:59;;;;;;;3.72;1.88;;;-10.20;97.80;;;;;;5045072;28;20549;-87
2024/01/12 06:35:25;;;;;;;3.53;1.47;;;-10.20;97.70;;;;;;5020112;28;20025;-85
2024/01/12 06:37:51;;;;;;;3.93;2.33;;;-10.10;97.70;;;;;;5034764;28;20025;-87
2024/01/12 06:40:17;;;;;;;5.82;2.38;;;-10.10;97.60;;;;;;5016725;28;20021;-87
2024/01/12 06:42:43;;;;;;;5.57;2.80;;;-10.10;97.50;;;;;;5024106;28;20037;-89
2024/01/12 06:45:11;;;;;;;8.00;2.30;;;-10.00;97.20;;;;;;5034581;28;20025;-87
2024/01/12 06:47:37;;;;;;;6.13;3.40;;;-10.00;96.80;;;;;;5034172;28;20028;-88
2024/01/12 06:50:03;;;;;;;6.13;2.97;;;-10.00;96.70;;;;;;5033351;28;20033;-87
2024/01/12 06:52:33;;;;;;;2.27;1.63;;;-10.00;96.60;;;;;;5024662;28;20050;-85
2024/01/12 06:54:59;;;;;;;8.10;2.65;;;-10.00;96.60;;;;;;5021238;28;20033;-84
2024/01/12 06:57:25;;;;;;;3.92;1.75;;;-10.00;96.20;;;;;;5021137;28;20021;-86
2024/01/12 06:59:51;;;;;;;3.83;2.05;;;-10.00;96.20;;;;;;5037788;28;20125;-86
2024/01/12 07:02:18;;;;;;;3.55;1.83;;;-10.00;96.20;;;;;;5036076;28;20021;-86
2024/01/12 07:04:45;;;;;;;4.85;3.42;;;-9.90;96.20;;;;;;5016005;28;20029;-86
2024/01/12 07:07:11;;;;;;;3.67;2.30;;;-9.90;95.90;;;;;;5014269;28;20171;-86
2024/01/12 07:09:37;;;;;;;5.80;1.88;;;-9.90;95.10;;;;;;5047336;28;20030;-85
2024/01/12 07:12:04;;;;;;;3.38;1.88;;;-9.90;95.10;;;;;;5049300;28;20176;-85
2024/01/12 07:14:30;;;;;;;7.68;2.50;;;-9.90;95.20;;;;;;5038843;28;20025;-86
2024/01/12 07:16:56;;;;;;;4.55;1.88;;;-9.80;95.40;;;;;;5037432;28;20056;-86
2024/01/12 07:19:22;;;;;;;5.95;2.10;;;-9.80;95.30;;;;;;5040433;28;20053;-86
2024/01/12 07:21:47;;;;;;;4.80;2.10;;;-9.80;94.90;;;;;;5054342;28;20017;-84
2024/01/12 07:24:14;;;;;;;5.50;2.65;;;-9.80;95.00;;;;;;5029111;28;20033;-85
2024/01/12 07:26:40;;;;;;;13.87;3.97;;;-9.80;95.20;;;;;;5033474;28;20029;-86
2024/01/12 07:29:06;;;;;;;6.28;2.22;;;-9.80;95.70;;;;;;5032955;28;20327;-87
2024/01/12 07:31:35;;;;;;;4.82;2.40;;;-9.80;95.90;;;;;;5033813;28;20037;-86
2024/01/12 07:34:04;;;;;;;6.72;3.10;;;-9.70;96.10;;;;;;5038979;28;20018;-86
2024/01/12 07:36:30;;;;;;;14.23;3.05;;;-9.70;96.40;;;;;;5027536;28;20471;-82
2024/01/12 07:38:57;;;;;;;8.63;2.60;;;-9.60;96.50;;;;;;5032778;28;20062;-82
2024/01/12 07:41:23;;;;;;;8.23;3.63;;;-9.60;96.40;;;;;;5015480;28;20029;-81
2024/01/12 07:43:49;;;;;;;6.63;3.47;;;-9.70;96.20;;;;;;5032979;28;20042;-81
2024/01/12 07:46:18;;;;;;;3.35;2.72;;;-9.70;96.00;;;;;;5033189;28;20390;-83
2024/01/12 07:48:49;;;;;;;7.30;3.33;;;-9.70;95.40;;;;;;5033311;28;20040;-82
2024/01/12 07:51:15;;;;;;;99.93;29.33;;;-9.80;95.20;;;;;;5010945;28;20097;-82
2024/01/12 07:53:41;;;;;;;4.25;2.63;;;-9.80;95.10;;;;;;5032565;28;20103;-82
2024/01/12 07:56:07;;;;;;;7.55;3.22;;;-9.80;94.90;;;;;;5024854;28;20368;-80
2024/01/12 07:58:33;;;;;;;9.15;3.38;;;-9.80;94.90;;;;;;5031779;28;20024;-82
2024/01/12 08:00:59;;;;;;;5.55;2.83;;;-9.80;94.70;;;;;;5031529;28;20033;-83
2024/01/12 08:03:25;;;;;;;7.95;2.15;;;-9.90;94.00;;;;;;5031572;28;20021;-83
2024/01/12 08:05:51;;;;;;;6.90;3.17;;;-9.90;93.60;;;;;;5031789;28;20535;-80
2024/01/12 08:08:18;;;;;;;28.97;7.93;;;-9.80;93.40;;;;;;5031623;28;20025;-82
2024/01/12 08:10:46;;;;;;;4.43;2.42;;;-9.90;92.50;;;;;;5032633;28;20263;-83
2024/01/12 08:13:12;;;;;;;3.45;2.13;;;-10.10;92.50;;;;;;5025173;28;20029;-81
2024/01/12 08:15:38;;;;;;;11.75;3.75;;;-10.10;92.80;;;;;;5031542;28;20057;-83
2024/01/12 08:18:04;;;;;;;4.88;1.95;;;-10.00;92.70;;;;;;5031767;28;20065;-82
2024/01/12 08:20:30;;;;;;;7.97;1.88;;;-10.00;92.30;;;;;;5014051;28;20029;-82
2024/01/12 08:22:56;;;;;;;3.97;2.63;;;-10.00;92.60;;;;;;5030930;28;20033;-80
2024/01/12 08:25:23;;;;;;;6.47;2.17;;;-10.10;91.90;;;;;;5031766;28;20104;-82
2024/01/12 08:27:49;;;;;;;3.15;2.20;;;-10.10;92.00;;;;;;5028022;28;20469;-81
2024/01/12 08:30:15;;;;;;;7.90;2.30;;;-10.10;92.20;;;;;;5031639;28;20097;-81
2024/01/12 08:32:41;;;;;;;4.72;2.13;;;-10.10;92.10;;;;;;5032564;28;20017;-85
2024/01/12 08:35:08;;;;;;;4.80;2.22;;;-10.00;92.20;;;;;;5031698;28;20080;-81
2024/01/12 08:37:34;;;;;;;2.65;2.00;;;-9.90;92.50;;;;;;5031374;28;20096;-80
2024/01/12 08:39:59;;;;;;;3.75;2.05;;;-9.90;91.90;;;;;;5039848;28;20060;-81
2024/01/12 08:42:25;;;;;;;4.95;3.28;;;-9.90;91.80;;;;;;5035555;28;20102;-82
2024/01/12 08:44:58;;;;;;;3.75;2.53;;;-10.00;91.40;;;;;;5016941;28;20070;-83
2024/01/12 08:47:24;;;;;;;8.52;3.03;;;-10.00;91.50;;;;;;5033029;28;20044;-83
2024/01/12 08:49:52;;;;;;;4.07;2.20;;;-10.10;91.20;;;;;;5041350;28;20026;-82
2024/01/12 08:52:18;;;;;;;7.85;2.15;;;-10.10;91.50;;;;;;5041947;28;20105;-79
2024/01/12 08:54:44;;;;;;;6.43;2.85;;;-10.10;91.60;;;;;;5035866;28;20076;-83
2024/01/12 08:57:10;;;;;;;8.43;2.40;;;-10.10;91.70;;;;;;5035159;28;20052;-82
2024/01/12 08:59:36;;;;;;;4.68;2.53;;;-10.00;91.80;;;;;;5036947;28;20105;-83
2024/01/12 09:02:01;;;;;;;6.47;2.65;;;-10.10;91.40;;;;;;5038038;28;20029;-85
2024/01/12 09:04:28;;;;;;;3.97;2.53;;;-10.10;91.30;;;;;;5045250;28;20410;-79
2024/01/12 09:06:54;;;;;;;7.57;2.88;;;-10.10;90.70;;;;;;5036992;28;20033;-81
2024/01/12 09:09:20;;;;;;;5.40;2.65;;;-10.20;91.10;;;;;;5034299;28;20029;-81
2024/01/12 09:11:46;;;;;;;4.82;2.83;;;-10.20;91.60;;;;;;5016971;28;20084;-82
2024/01/12 09:14:11;;;;;;;4.05;2.58;;;-10.20;91.80;;;;;;5017025;28;20022;-79
2024/01/12 09:16:37;;;;;;;4.78;2.53;;;-10.20;90.80;;;;;;5034779;28;20030;-80
2024/01/12 09:19:03;;;;;;;2.72;1.92;;;-10.20;90.90;;;;;;5017727;28;20032;-81
2024/01/12 09:21:29;;;;;;;6.00;1.77;;;-10.20;91.00;;;;;;5035082;28;20030;-79
2024/01/12 09:23:55;;;;;;;3.95;1.92;;;-10.20;90.80;;;;;;5035683;28;20498;-79
2024/01/12 09:26:21;;;;;;;6.05;2.60;;;-10.10;90.70;;;;;;5039227;28;20017;-79
2024/01/12 09:28:47;;;;;;;11.23;4.18;;;-10.00;90.20;;;;;;5042487;28;20029;-81
2024/01/12 09:31:13;;;;;;;5.00;2.00;;;-9.80;88.80;;;;;;5041426;28;20437;-84
2024/01/12 09:33:38;;;;;;;4.35;1.88;;;-9.70;88.00;;;;;;5036072;28;20021;-83
2024/01/12 09:36:05;;;;;;;4.68;2.53;;;-9.50;87.10;;;;;;5033930;28;20183;-83
2024/01/12 09:38:31;;;;;;;4.03;1.67;;;-9.50;85.20;;;;;;5032291;28;20038;-80
2024/01/12 09:40:58;;;;;;;3.20;1.63;;;-9.40;85.10;;;;;;5016283;28;20121;-79
2024/01/12 09:43:29;;;;;;;4.25;1.95;;;-9.50;83.50;;;;;;5033515;28;20411;-83
2024/01/12 09:46:02;;;;;;;5.28;3.55;;;-9.60;83.30;;;;;;5016438;28;20029;-83
2024/01/12 09:48:29;;;;;;;5.82;2.08;;;-9.70;82.10;;;;;;5035330;28;20029;-84
2024/01/12 09:50:56;;;;;;;4.10;1.70;;;-9.90;82.60;;;;;;5033030;28;20044;-81
2024/01/12 09:53:22;;;;;;;3.63;2.55;;;-10.00;83.40;;;;;;5033919;28;20033;-83
2024/01/12 09:55:49;;;;;;;4.28;2.40;;;-10.10;82.50;;;;;;5016367;28;20026;-82
2024/01/12 09:58:17;;;;;;;2.88;1.95;;;-10.30;83.30;;;;;;5034114;28;20021;-82
2024/01/12 10:00:45;;;;;;;8.98;3.78;;;-10.40;84.20;;;;;;5034031;28;20021;-79
2024/01/12 10:03:17;;;;;;;2.58;1.52;;;-10.50;84.70;;;;;;5015850;28;20045;-81
2024/01/12 10:05:44;;;;;;;4.50;1.85;;;-10.50;84.30;;;;;;5023447;28;20018;-81
2024/01/12 10:08:09;;;;;;;;;;;-10.60;83.90;;;;;;5036843;28;20033;-83
2024/01/12 10:10:35;;;;;;;2.87;1.83;;;-10.70;83.20;;;;;;5032192;28;19912;-85
2024/01/12 10:13:02;;;;;;;5.47;2.28;;;-10.90;84.10;;;;;;5034279;28;20071;-85
2024/01/12 10:15:29;;;;;;;4.45;1.42;;;-10.90;84.40;;;;;;5039067;28;20033;-85
2024/01/12 10:17:56;;;;;;;4.35;2.25;;;-10.70;86.00;;;;;;5013895;28;20386;-86
2024/01/12 10:20:22;;;;;;;3.72;1.75;;;-10.50;84.70;;;;;;5032331;28;20056;-83
2024/01/12 10:22:58;;;;;;;4.53;2.38;;;-10.10;86.20;;;;;;5016562;28;20037;-82
2024/01/12 10:25:24;;;;;;;3.50;1.55;;;-9.60;83.30;;;;;;5034628;28;20029;-85
2024/01/12 10:27:57;;;;;;;4.20;1.80;;;-9.30;83.40;;;;;;5017672;28;20033;-85
2024/01/12 10:30:23;;;;;;;3.60;1.23;;;-9.10;77.80;;;;;;5036674;28;20013;-82
2024/01/12 10:32:53;;;;;;;3.05;2.30;;;-9.10;78.80;;;;;;5030210;28;20017;-85
2024/01/12 10:35:20;;;;;;;5.00;4.18;;;-8.80;79.20;;;;;;5032421;28;20014;-85
2024/01/12 10:37:47;;;;;;;3.28;2.05;;;-8.70;76.40;;;;;;5034198;28;20091;-83
2024/01/12 10:40:17;;;;;;;3.67;2.30;;;-8.80;76.60;;;;;;5016827;28;20025;-84
2024/01/12 10:42:49;;;;;;;5.47;1.60;;;-9.00;76.40;;;;;;5036162;28;20033;-82
2024/01/12 10:45:21;;;;;;;3.90;2.45;;;-9.20;76.70;;;;;;5020084;28;20379;-86
2024/01/12 10:48:09;;;;;;;11.48;2.20;;;-9.30;77.60;;;;;;5018943;28;20386;-88
2024/01/12 10:50:41;;;;;;;1.85;1.40;;;-9.50;79.20;;;;;;5037206;28;20071;-86
2024/01/12 10:53:32;;;;;;;1.75;1.30;;;-9.70;79.80;;;;;;5050106;28;20021;-89
2024/01/12 10:55:59;;;;;;;3.10;1.25;;;-9.90;79.10;;;;;;5017028;28;20025;-87
2024/01/12 10:58:26;;;;;;;3.72;1.70;;;-10.10;78.90;;;;;;5034805;28;20486;-85
2024/01/12 11:00:53;;;;;;;6.05;2.88;;;-10.20;79.30;;;;;;5034269;28;20104;-88
2024/01/12 11:03:20;;;;;;;5.85;3.05;;;-10.40;79.10;;;;;;5032777;28;20112;-85
2024/01/12 11:05:48;;;;;;;3.47;1.70;;;-10.50;79.20;;;;;;5034461;28;20033;-86
2024/01/12 11:08:15;;;;;;;3.95;2.17;;;-10.60;81.40;;;;;;5033362;28;20045;-83
2024/01/12 11:10:49;;;;;;;3.95;2.13;;;-10.70;80.90;;;;;;5032508;28;20452;-83
2024/01/12 11:13:16;;;;;;;1.63;1.52;;;-10.70;81.30;;;;;;5015526;28;20029;-82
2024/01/12 11:15:43;;;;;;;4.18;1.85;;;-10.70;81.70;;;;;;5032553;28;20013;-83
2024/01/12 11:18:09;;;;;;;4.72;2.80;;;-10.70;82.30;;;;;;5032995;28;20034;-83
2024/01/12 11:20:35;;;;;;;3.53;2.40;;;-10.70;81.60;;;;;;5014761;28;20017;-81
2024/01/12 11:23:01;;;;;;;4.60;2.17;;;-10.70;82.10;;;;;;5014988;28;20091;-82
2024/01/12 11:25:28;;;;;;;6.30;3.03;;;-10.60;82.80;;;;;;5033545;28;20024;-83
2024/01/12 11:27:57;;;;;;;3.47;2.03;;;-10.60;83.10;;;;;;5032774;28;20028;-84
2024/01/12 11:30:26;;;;;;;3.35;1.98;;;-10.70;81.90;;;;;;5032569;28;20574;-84
2024/01/12 11:33:12;;;;;;;3.47;1.98;;;-10.70;82.10;;;;;;5033500;28;20022;-82
2024/01/12 11:35:39;;;;;;;3.45;2.20;;;-10.80;80.40;;;;;;5014570;28;20028;-82
2024/01/12 11:38:09;;;;;;;;;;;-10.90;80.70;;;;;;5033602;28;20025;-83
2024/01/12 11:40:36;;;;;;;4.93;2.63;;;-11.00;81.00;;;;;;5050028;28;19908;-82
2024/01/12 11:43:02;;;;;;;1.10;1.00;;;-11.00;81.70;;;;;;5034671;28;20112;-84
2024/01/12 11:45:29;;;;;;;8.40;7.53;;;-11.10;81.50;;;;;;5032960;28;20089;-81
2024/01/12 11:47:55;;;;;;;64.25;40.08;;;-11.10;81.90;;;;;;5014582;28;20505;-84
2024/01/12 11:50:24;;;;;;;4.35;2.17;;;-11.20;80.90;;;;;;5032661;28;20029;-84
2024/01/12 11:53:00;;;;;;;4.68;1.80;;;-11.30;82.40;;;;;;5033110;28;20017;-85
2024/01/12 11:55:27;;;;;;;6.15;2.25;;;-11.20;83.10;;;;;;5033412;28;20355;-86
2024/01/12 11:57:55;;;;;;;3.57;1.77;;;-11.20;81.50;;;;;;5034484;28;20021;-83
2024/01/12 12:00:25;;;;;;;3.67;1.48;;;-11.30;81.70;;;;;;5023993;28;20096;-83
2024/01/12 12:02:52;;;;;;;2.75;2.25;;;-11.30;81.40;;;;;;5036626;28;20037;-84
2024/01/12 12:05:17;;;;;;;5.78;3.53;;;-11.30;81.60;;;;;;5032344;28;20020;-82
2024/01/12 12:07:44;;;;;;;3.70;2.03;;;-11.40;82.40;;;;;;5032081;28;20033;-82
2024/01/12 12:10:10;;;;;;;7.13;2.53;;;-11.40;82.80;;;;;;5032173;28;20467;-83
2024/01/12 12:12:37;;;;;;;7.57;3.30;;;-11.40;82.70;;;;;;5033949;28;20061;-85
2024/01/12 12:15:15;;;;;;;4.50;2.50;;;-11.40;82.50;;;;;;5038807;28;20025;-81
2024/01/12 12:17:43;;;;;;;3.35;2.30;;;-11.40;82.80;;;;;;5038390;28;20104;-85
2024/01/12 12:20:12;;;;;;;1.65;1.52;;;-11.30;83.20;;;;;;5038815;28;20044;-83
2024/01/12 12:22:39;;;;;;;3.47;1.90;;;-11.30;83.10;;;;;;5036286;28;20033;-82
2024/01/12 12:25:11;;;;;;;;;;;-11.30;83.50;;;;;;5020270;28;20021;-81
2024/01/12 12:27:43;;;;;;;5.95;2.70;;;-11.30;82.80;;;;;;5039150;28;20313;-84
2024/01/12 12:30:10;;;;;;;4.40;2.88;;;-11.30;82.30;;;;;;5037053;28;20028;-82
2024/01/12 12:32:40;;;;;;;2.17;1.73;;;-11.30;81.40;;;;;;5031109;28;20029;-82
2024/01/12 12:35:20;;;;;;;1.98;1.25;;;-11.40;80.70;;;;;;5036894;28;20017;-83
2024/01/12 12:37:52;;;;;;;3.28;2.30;;;-11.50;81.10;;;;;;5020476;28;20028;-84